createdAt,value
2018-04-02T00:00:24.758Z,86.50
2018-04-02T00:02:53.853Z,86.45
2018-04-02T00:05:23.646Z,86.18
2018-04-02T00:07:51.943Z,86.44
2018-04-02T00:10:20.789Z,85.85
2018-04-02T00:12:49.107Z,86.04
2018-04-02T00:15:18.138Z,85.78
2018-04-02T00:17:46.441Z,85.45
2018-04-02T00:20:14.707Z,85.40
2018-04-02T00:22:43.461Z,85.58
2018-04-02T00:25:11.758Z,85.42
2018-04-02T00:27:40.007Z,85.28
2018-04-02T00:30:08.309Z,85.44
2018-04-02T00:32:36.549Z,85.56
2018-04-02T00:35:04.838Z,85.35
2018-04-02T00:37:33.092Z,85.61
2018-04-02T00:40:02.118Z,85.91
2018-04-02T00:42:30.401Z,85.58
2018-04-02T00:44:58.693Z,85.19
2018-04-02T00:47:27.115Z,85.40
2018-04-02T00:49:56.163Z,84.76
2018-04-02T00:52:24.449Z,84.82
2018-04-02T00:54:52.898Z,84.06
2018-04-02T00:57:21.150Z,84.12
2018-04-02T00:59:49.411Z,84.24
2018-04-02T01:02:18.467Z,83.57
2018-04-02T01:04:46.719Z,83.77
2018-04-02T01:07:14.997Z,84.33
2018-04-02T01:09:43.265Z,83.97
2018-04-02T01:12:11.546Z,83.75
2018-04-02T01:14:39.819Z,84.25
2018-04-02T01:17:08.080Z,83.86
2018-04-02T01:19:36.371Z,83.48
2018-04-02T01:22:04.650Z,83.33
2018-04-02T01:24:32.916Z,83.23
2018-04-02T01:27:01.212Z,83.06
2018-04-02T01:29:29.521Z,83.17
2018-04-02T01:31:57.802Z,83.58
2018-04-02T01:34:27.029Z,82.66
2018-04-02T01:36:55.296Z,82.77
2018-04-02T01:39:23.582Z,82.50
2018-04-02T01:41:51.860Z,82.40
2018-04-02T01:44:20.165Z,82.37
2018-04-02T01:46:48.448Z,82.01
2018-04-02T01:49:16.707Z,82.00
2018-04-02T01:51:45.082Z,81.53
2018-04-02T01:54:13.442Z,81.87
2018-04-02T01:56:41.708Z,82.68
2018-04-02T01:59:10.909Z,81.85
2018-04-02T02:01:39.191Z,82.18
2018-04-02T02:04:07.499Z,81.76
2018-04-02T02:06:35.786Z,82.49
2018-04-02T02:09:04.068Z,82.00
2018-04-02T02:11:33.108Z,81.52
2018-04-02T02:14:01.368Z,81.49
2018-04-02T02:16:29.719Z,81.34
2018-04-02T02:18:58.754Z,81.10
2018-04-02T02:21:27.107Z,81.15
2018-04-02T02:23:55.360Z,81.37
2018-04-02T02:26:24.423Z,81.20
2018-04-02T02:28:52.738Z,81.41
2018-04-02T02:31:21.778Z,80.65
2018-04-02T02:33:50.053Z,80.53
2018-04-02T02:36:18.305Z,80.92
2018-04-02T02:38:46.594Z,80.59
2018-04-02T02:41:14.849Z,80.12
2018-04-02T02:43:43.119Z,79.88
2018-04-02T02:46:11.383Z,80.95
2018-04-02T02:48:40.430Z,80.64
2018-04-02T02:51:08.709Z,80.77
2018-04-02T02:53:36.988Z,80.64
2018-04-02T02:56:06.084Z,80.94
2018-04-02T02:58:34.591Z,80.65
2018-04-02T03:01:03.932Z,80.65
2018-04-02T03:03:32.436Z,81.17
2018-04-02T03:06:00.695Z,81.21
2018-04-02T03:08:28.964Z,81.27
2018-04-02T03:10:57.244Z,82.18
2018-04-02T03:13:25.550Z,81.43
2018-04-02T03:15:53.946Z,82.24
2018-04-02T03:18:22.974Z,82.04
2018-04-02T03:20:51.547Z,81.63
2018-04-02T03:23:20.575Z,81.37
2018-04-02T03:25:48.853Z,82.14
2018-04-02T03:28:17.119Z,82.50
2018-04-02T03:30:45.394Z,82.37
2018-04-02T03:33:13.684Z,81.73
2018-04-02T03:35:41.970Z,81.87
2018-04-02T03:38:10.217Z,82.26
2018-04-02T03:40:38.484Z,82.45
2018-04-02T03:43:06.759Z,83.28
2018-04-02T03:45:35.047Z,83.71
2018-04-02T03:48:03.838Z,83.59
2018-04-02T03:50:32.106Z,83.89
2018-04-02T03:53:01.201Z,84.16
2018-04-02T03:55:29.468Z,83.04
2018-04-02T03:57:58.379Z,83.11
2018-04-02T04:00:26.655Z,82.89
2018-04-02T04:02:55.026Z,83.25
2018-04-02T04:05:24.013Z,83.38
2018-04-02T04:07:52.375Z,83.84
2018-04-02T04:10:20.638Z,84.15
2018-04-02T04:12:48.937Z,83.18
2018-04-02T04:15:17.216Z,83.32
2018-04-02T04:17:45.562Z,83.29
2018-04-02T04:20:14.139Z,83.26
2018-04-02T04:22:42.407Z,82.75
2018-04-02T04:25:10.693Z,82.57
2018-04-02T04:27:38.943Z,82.28
2018-04-02T04:30:08.178Z,83.16
2018-04-02T04:32:36.446Z,83.46
2018-04-02T04:35:04.724Z,84.17
2018-04-02T04:37:33.183Z,84.28
2018-04-02T04:40:02.208Z,84.25
2018-04-02T04:42:30.503Z,83.91
2018-04-02T04:44:58.910Z,84.85
2018-04-02T04:47:27.187Z,84.19
2018-04-02T04:49:56.210Z,84.01
2018-04-02T04:52:24.480Z,84.01
2018-04-02T04:54:52.749Z,84.67
2018-04-02T04:57:21.815Z,85.27
2018-04-02T04:59:50.301Z,85.06
2018-04-02T05:02:19.491Z,85.18
2018-04-02T05:04:48.629Z,85.25
2018-04-02T05:07:16.919Z,84.87
2018-04-02T05:09:45.259Z,84.22
2018-04-02T05:12:14.332Z,84.23
2018-04-02T05:14:42.583Z,83.79
2018-04-02T05:17:10.872Z,83.75
2018-04-02T05:19:39.266Z,83.85
2018-04-02T05:22:07.541Z,83.55
2018-04-02T05:24:36.651Z,83.31
2018-04-02T05:27:05.781Z,83.25
2018-04-02T05:29:34.160Z,83.17
2018-04-02T05:32:02.431Z,82.99
2018-04-02T05:34:30.750Z,82.06
2018-04-02T05:36:59.014Z,82.87
2018-04-02T05:39:27.309Z,82.35
2018-04-02T05:41:55.563Z,81.69
2018-04-02T05:44:23.969Z,81.87
2018-04-02T05:46:53.006Z,82.21
2018-04-02T05:49:21.290Z,81.99
2018-04-02T05:51:49.575Z,81.58
2018-04-02T05:54:17.864Z,81.87
2018-04-02T05:56:46.160Z,81.42
2018-04-02T05:59:14.586Z,80.91
2018-04-02T06:01:42.825Z,80.71
2018-04-02T06:04:11.142Z,81.55
2018-04-02T06:06:39.636Z,81.45
2018-04-02T06:09:07.953Z,80.48
2018-04-02T06:11:37.010Z,80.78
2018-04-02T06:14:05.290Z,81.01
2018-04-02T06:16:33.555Z,79.96
2018-04-02T06:19:01.810Z,81.37
2018-04-02T06:21:30.086Z,80.54
2018-04-02T06:23:58.453Z,79.89
2018-04-02T06:26:26.725Z,79.80
2018-04-02T06:28:54.985Z,79.91
2018-04-02T06:31:23.251Z,79.27
2018-04-02T06:33:51.513Z,78.07
2018-04-02T06:36:20.523Z,77.51
2018-04-02T06:38:48.988Z,77.69
2018-04-02T06:41:17.993Z,76.87
2018-04-02T06:43:46.271Z,76.47
2018-04-02T06:46:14.543Z,75.99
2018-04-02T06:48:42.818Z,75.00
2018-04-02T06:51:11.858Z,74.96
2018-04-02T06:53:40.123Z,74.25
2018-04-02T06:56:08.387Z,72.43
2018-04-02T06:58:36.669Z,71.48
2018-04-02T07:01:04.929Z,71.46
2018-04-02T07:03:33.854Z,71.48
2018-04-02T07:06:02.187Z,70.69
2018-04-02T07:08:30.564Z,70.50
2018-04-02T07:10:58.880Z,67.08
2018-04-02T07:16:02.263Z,65.58
2018-04-02T07:18:30.543Z,67.46
2018-04-02T07:20:58.825Z,67.00
2018-04-02T07:23:27.385Z,65.11
2018-04-02T07:25:55.901Z,64.38
2018-04-02T07:28:24.256Z,63.69
2018-04-02T07:30:52.587Z,64.44
2018-04-02T07:33:21.600Z,62.87
2018-04-02T07:35:49.907Z,63.07
2018-04-02T07:38:18.143Z,63.16
2018-04-02T07:40:46.454Z,63.79
2018-04-02T07:43:14.866Z,64.33
2018-04-02T07:45:43.311Z,63.77
2018-04-02T07:48:11.595Z,62.96
2018-04-02T07:50:39.938Z,63.60
2018-04-02T07:53:09.650Z,61.93
2018-04-02T07:55:37.972Z,62.69
2018-04-02T07:58:06.279Z,62.40
2018-04-02T08:00:35.365Z,63.07
2018-04-02T08:03:04.514Z,62.00
2018-04-02T08:05:32.898Z,62.60
2018-04-02T08:08:01.197Z,63.65
2018-04-02T08:10:29.542Z,63.47
2018-04-02T08:12:57.811Z,64.03
2018-04-02T08:15:26.099Z,62.60
2018-04-02T08:17:54.408Z,61.25
2018-04-02T08:20:22.932Z,61.69
2018-04-02T08:22:51.202Z,62.24
2018-04-02T08:25:19.620Z,62.84
2018-04-02T08:27:47.904Z,61.29
2018-04-02T08:30:16.222Z,61.22
2018-04-02T08:32:44.504Z,60.96
2018-04-02T08:35:12.805Z,60.21
2018-04-02T08:37:41.171Z,60.77
2018-04-02T08:40:10.184Z,60.32
2018-04-02T08:42:38.448Z,60.81
2018-04-02T08:45:06.837Z,59.47
2018-04-02T08:47:35.106Z,59.11
2018-04-02T08:50:03.399Z,58.23
2018-04-02T08:52:31.661Z,58.25
2018-04-02T08:54:59.950Z,57.99
2018-04-02T08:57:28.233Z,55.53
2018-04-02T08:59:56.547Z,54.15
2018-04-02T09:02:25.661Z,52.73
2018-04-02T09:04:53.977Z,51.13
2018-04-02T09:07:22.272Z,51.12
2018-04-02T09:09:51.329Z,49.88
2018-04-02T09:12:19.609Z,49.47
2018-04-02T09:14:47.860Z,49.08
2018-04-02T09:17:16.155Z,48.24
2018-04-02T09:19:44.510Z,48.56
2018-04-02T09:22:12.862Z,48.33
2018-04-02T09:24:41.118Z,46.86
2018-04-02T09:27:10.605Z,47.63
2018-04-02T09:29:38.902Z,46.41
2018-04-02T09:32:07.274Z,44.53
2018-04-02T09:34:36.643Z,45.13
2018-04-02T09:37:04.894Z,42.89
2018-04-02T09:39:33.231Z,43.74
2018-04-02T09:42:01.520Z,43.13
2018-04-02T09:44:30.547Z,37.96
2018-04-02T09:46:58.805Z,40.16
2018-04-02T09:49:27.080Z,42.66
2018-04-02T09:51:55.343Z,42.79
2018-04-02T09:54:23.752Z,41.98
2018-04-02T09:56:52.011Z,41.44
2018-04-02T09:59:20.519Z,39.90
2018-04-02T10:01:49.530Z,39.70
2018-04-02T10:04:17.782Z,37.99
2018-04-02T10:06:46.104Z,37.57
2018-04-02T10:09:15.144Z,36.16
2018-04-02T10:11:43.696Z,38.27
2018-04-02T10:14:12.464Z,38.10
2018-04-02T10:16:40.740Z,38.44
2018-04-02T10:19:09.778Z,37.88
2018-04-02T10:21:38.075Z,35.10
2018-04-02T10:24:06.366Z,32.94
2018-04-02T10:26:34.599Z,33.75
2018-04-02T10:29:02.876Z,33.35
2018-04-02T10:31:31.159Z,33.29
2018-04-02T10:33:59.438Z,33.75
2018-04-02T10:36:27.699Z,34.14
2018-04-02T10:38:56.293Z,36.27
2018-04-02T10:41:24.639Z,34.85
2018-04-02T10:43:53.743Z,34.88
2018-04-02T10:46:22.069Z,32.90
2018-04-02T10:48:50.400Z,33.07
2018-04-02T10:51:18.710Z,33.62
2018-04-02T10:53:47.057Z,32.16
2018-04-02T10:56:15.347Z,33.31
2018-04-02T10:58:43.676Z,35.03
2018-04-02T11:01:12.006Z,36.95
2018-04-02T11:03:40.334Z,36.71
2018-04-02T11:06:09.601Z,36.13
2018-04-02T11:08:38.108Z,35.91
2018-04-02T11:11:07.199Z,34.58
2018-04-02T11:13:36.250Z,34.51
2018-04-02T11:16:04.697Z,32.08
2018-04-02T11:18:32.974Z,33.04
2018-04-02T11:21:01.295Z,32.25
2018-04-02T11:23:30.379Z,32.26
2018-04-02T11:25:58.821Z,32.19
2018-04-02T11:28:27.228Z,34.68
2018-04-02T11:30:55.478Z,34.09
2018-04-02T11:33:23.755Z,33.93
2018-04-02T11:35:52.071Z,34.78
2018-04-02T11:38:20.941Z,36.85
2018-04-02T11:40:49.247Z,36.09
2018-04-02T11:43:17.474Z,35.47
2018-04-02T11:45:45.743Z,34.94
2018-04-02T11:48:14.015Z,33.60
2018-04-02T11:50:42.321Z,31.88
2018-04-02T11:53:10.604Z,32.90
2018-04-02T11:55:38.906Z,31.27
2018-04-02T11:58:08.035Z,32.52
2018-04-02T12:00:36.299Z,30.41
2018-04-02T12:03:04.585Z,29.99
2018-04-02T12:05:33.314Z,29.10
2018-04-02T12:08:01.568Z,28.77
2018-04-02T12:10:29.845Z,29.62
2018-04-02T12:12:58.225Z,29.24
2018-04-02T12:15:26.507Z,30.77
2018-04-02T12:17:54.772Z,33.15
2018-04-02T12:20:23.234Z,33.40
2018-04-02T12:22:51.519Z,33.52
2018-04-02T12:25:19.825Z,32.80
2018-04-02T12:27:48.347Z,31.86
2018-04-02T12:30:16.648Z,31.32
2018-04-02T12:32:44.970Z,30.85
2018-04-02T12:35:14.012Z,30.68
2018-04-02T12:37:42.530Z,32.51
2018-04-02T12:40:10.789Z,33.43
2018-04-02T12:42:39.310Z,35.13
2018-04-02T12:45:07.584Z,37.73
2018-04-02T12:47:36.676Z,36.29
2018-04-02T12:50:05.695Z,34.13
2018-04-02T12:52:34.170Z,32.76
2018-04-02T12:55:02.481Z,33.73
2018-04-02T12:57:30.762Z,35.20
2018-04-02T12:59:59.032Z,36.66
2018-04-02T13:02:27.306Z,36.17
2018-04-02T13:04:55.635Z,35.61
2018-04-02T13:07:23.891Z,37.46
2018-04-02T13:09:52.952Z,37.53
2018-04-02T13:12:21.385Z,34.29
2018-04-02T13:14:49.668Z,36.83
2018-04-02T13:17:17.935Z,35.85
2018-04-02T13:19:46.263Z,34.71
2018-04-02T13:22:14.572Z,35.57
2018-04-02T13:24:42.926Z,35.43
2018-04-02T13:27:11.172Z,35.42
2018-04-02T13:29:39.539Z,35.06
2018-04-02T13:32:07.815Z,34.90
2018-04-02T13:34:36.075Z,35.65
2018-04-02T13:37:04.369Z,37.19
2018-04-02T13:39:32.766Z,33.85
2018-04-02T13:42:01.154Z,31.41
2018-04-02T13:44:29.516Z,29.71
2018-04-02T13:46:57.805Z,30.38
2018-04-02T13:49:26.083Z,31.88
2018-04-02T13:51:54.335Z,30.74
2018-04-02T13:54:22.731Z,30.79
2018-04-02T13:56:50.979Z,30.47
2018-04-02T13:59:19.273Z,31.42
2018-04-02T14:01:47.661Z,31.49
2018-04-02T14:04:15.940Z,31.78
2018-04-02T14:06:44.217Z,32.36
2018-04-02T14:09:13.682Z,31.52
2018-04-02T14:11:42.798Z,31.95
2018-04-02T14:14:11.391Z,32.07
2018-04-02T14:16:39.865Z,32.13
2018-04-02T14:19:08.417Z,31.51
2018-04-02T14:21:36.835Z,31.86
2018-04-02T14:24:05.280Z,31.74
2018-04-02T14:26:33.665Z,32.13
2018-04-02T14:29:02.160Z,31.52
2018-04-02T14:31:30.451Z,31.82
2018-04-02T14:33:58.721Z,32.43
2018-04-02T14:36:27.173Z,31.73
2018-04-02T14:38:55.460Z,32.94
2018-04-02T14:41:23.845Z,33.29
2018-04-02T14:43:52.203Z,33.33
2018-04-02T14:46:20.556Z,34.38
2018-04-02T14:48:48.950Z,34.86
2018-04-02T14:51:17.410Z,32.07
2018-04-02T14:53:45.702Z,32.35
2018-04-02T14:56:14.029Z,32.09
2018-04-02T14:58:42.286Z,32.40
2018-04-02T15:01:10.593Z,31.64
2018-04-02T15:03:39.651Z,32.39
2018-04-02T15:06:07.943Z,32.41
2018-04-02T15:08:36.240Z,32.81
2018-04-02T15:11:05.298Z,33.67
2018-04-02T15:13:33.714Z,33.94
2018-04-02T15:16:02.978Z,33.65
2018-04-02T15:18:31.379Z,33.41
2018-04-02T15:21:00.592Z,33.91
2018-04-02T15:23:29.791Z,33.60
2018-04-02T15:25:58.074Z,33.62
2018-04-02T15:28:26.364Z,34.19
2018-04-02T15:30:54.654Z,34.70
2018-04-02T15:33:22.952Z,34.41
2018-04-02T15:35:51.211Z,32.72
2018-04-02T15:38:19.542Z,31.84
2018-04-02T15:40:47.842Z,32.27
2018-04-02T15:43:16.207Z,31.71
2018-04-02T15:45:44.479Z,32.64
2018-04-02T15:48:12.763Z,33.97
2018-04-02T15:50:41.131Z,35.19
2018-04-02T15:53:11.189Z,34.67
2018-04-02T15:55:39.520Z,35.72
2018-04-02T15:58:07.792Z,37.08
2018-04-02T16:00:36.274Z,37.00
2018-04-02T16:03:04.648Z,37.12
2018-04-02T16:05:32.890Z,37.30
2018-04-02T16:08:01.147Z,37.70
2018-04-02T16:10:29.442Z,38.82
2018-04-02T16:12:58.468Z,37.82
2018-04-02T16:15:26.759Z,38.28
2018-04-02T16:17:55.057Z,37.56
2018-04-02T16:20:23.371Z,36.71
2018-04-02T16:22:52.420Z,37.14
2018-04-02T16:25:20.691Z,36.81
2018-04-02T16:27:48.982Z,36.53
2018-04-02T16:30:17.233Z,36.93
2018-04-02T16:32:45.679Z,37.65
2018-04-02T16:35:14.721Z,38.45
2018-04-02T16:37:43.041Z,38.29
2018-04-02T16:40:12.075Z,38.89
2018-04-02T16:42:40.407Z,37.49
2018-04-02T16:45:08.728Z,36.86
2018-04-02T16:47:37.232Z,36.52
2018-04-02T16:50:05.813Z,35.07
2018-04-02T16:52:34.080Z,34.95
2018-04-02T16:55:02.518Z,34.57
2018-04-02T16:57:30.779Z,34.60
2018-04-02T17:00:00.027Z,35.90
2018-04-02T17:02:28.400Z,35.04
2018-04-02T17:04:57.407Z,35.73
2018-04-02T17:07:25.674Z,35.43
2018-04-02T17:09:53.995Z,36.04
2018-04-02T17:12:23.043Z,36.33
2018-04-02T17:14:51.418Z,35.68
2018-04-02T17:17:20.161Z,36.45
2018-04-02T17:19:49.068Z,36.36
2018-04-02T17:22:17.358Z,36.53
2018-04-02T17:24:49.487Z,36.45
2018-04-02T17:27:18.575Z,36.90
2018-04-02T17:29:47.315Z,36.50
2018-04-02T17:32:16.154Z,37.24
2018-04-02T17:34:45.235Z,36.71
2018-04-02T17:37:13.675Z,37.71
2018-04-02T17:39:42.912Z,37.19
2018-04-02T17:42:11.579Z,37.54
2018-04-02T17:44:40.047Z,37.65
2018-04-02T17:47:08.821Z,37.67
2018-04-02T17:49:37.511Z,37.39
2018-04-02T17:52:06.098Z,37.39
2018-04-02T17:54:34.943Z,38.05
2018-04-02T17:57:03.966Z,37.65
2018-04-02T17:59:32.566Z,38.03
2018-04-02T18:02:01.232Z,37.94
2018-04-02T18:04:29.818Z,38.22
2018-04-02T18:06:58.675Z,37.73
2018-04-02T18:09:27.924Z,38.13
2018-04-02T18:11:56.454Z,37.67
2018-04-02T18:14:26.024Z,36.41
2018-04-02T18:16:54.884Z,37.75
2018-04-02T18:19:23.421Z,37.66
2018-04-02T18:21:54.200Z,35.98
2018-04-02T18:24:22.893Z,36.00
2018-04-02T18:26:52.067Z,35.48
2018-04-02T18:29:21.609Z,36.21
2018-04-02T18:31:49.897Z,36.04
2018-04-02T18:34:18.461Z,35.31
2018-04-02T18:36:47.589Z,34.85
2018-04-02T18:39:16.668Z,33.99
2018-04-02T18:41:44.932Z,34.69
2018-04-02T18:44:13.203Z,33.65
2018-04-02T18:46:41.478Z,33.71
2018-04-02T18:49:09.808Z,33.78
2018-04-02T18:51:38.497Z,33.27
2018-04-02T18:54:07.746Z,33.82
2018-04-02T18:56:36.119Z,32.94
2018-04-02T18:59:04.909Z,33.47
2018-04-02T19:01:33.194Z,33.86
2018-04-02T19:04:02.604Z,33.63
2018-04-02T19:06:31.967Z,33.93
2018-04-02T19:09:01.139Z,34.14
2018-04-02T19:11:29.743Z,34.31
2018-04-02T19:13:58.165Z,34.43
2018-04-02T19:16:27.077Z,34.41
2018-04-02T19:18:55.812Z,35.20
2018-04-02T19:21:25.180Z,36.17
2018-04-02T19:23:53.673Z,35.84
2018-04-02T19:26:22.136Z,35.76
2018-04-02T19:28:51.135Z,36.18
2018-04-02T19:31:20.021Z,36.62
2018-04-02T19:33:48.535Z,36.27
2018-04-02T19:36:17.196Z,36.21
2018-04-02T19:38:45.675Z,36.06
2018-04-02T19:41:15.315Z,35.79
2018-04-02T19:43:43.934Z,36.72
2018-04-02T19:46:12.276Z,36.01
2018-04-02T19:48:40.539Z,36.13
2018-04-02T19:51:08.793Z,36.18
2018-04-02T19:53:37.083Z,36.00
2018-04-02T19:56:05.345Z,36.03
2018-04-02T19:58:33.639Z,36.22
2018-04-02T20:01:01.891Z,36.43
2018-04-02T20:03:30.206Z,36.58
2018-04-02T20:05:59.249Z,37.02
2018-04-02T20:08:27.729Z,37.46
2018-04-02T20:10:56.042Z,37.59
2018-04-02T20:13:24.490Z,37.88
2018-04-02T20:15:52.814Z,38.12
2018-04-02T20:18:21.095Z,38.01
2018-04-02T20:20:50.189Z,38.37
2018-04-02T20:23:19.222Z,38.38
2018-04-02T20:25:47.697Z,38.29
2018-04-02T20:28:16.009Z,38.61
2018-04-02T20:30:44.308Z,38.52
2018-04-02T20:33:12.563Z,38.53
2018-04-02T20:35:40.854Z,38.51
2018-04-02T20:38:09.879Z,38.97
2018-04-02T20:40:38.150Z,38.84
2018-04-02T20:43:06.739Z,39.23
2018-04-02T20:45:35.006Z,39.74
2018-04-02T20:48:03.298Z,39.84
2018-04-02T20:50:31.573Z,39.95
2018-04-02T20:53:00.128Z,39.84
2018-04-02T20:55:29.164Z,39.92
2018-04-02T20:57:57.434Z,39.65
2018-04-02T21:00:25.708Z,39.89
2018-04-02T21:02:53.986Z,39.85
2018-04-02T21:05:22.254Z,40.24
2018-04-02T21:07:50.528Z,40.40
2018-04-02T21:10:18.908Z,40.26
2018-04-02T21:12:47.228Z,40.10
2018-04-02T21:15:17.164Z,40.85
2018-04-02T21:17:46.333Z,41.98
2018-04-02T21:20:16.109Z,42.71
2018-04-02T21:22:44.395Z,43.48
2018-04-02T21:25:12.732Z,44.35
2018-04-02T21:27:41.021Z,45.82
2018-04-02T21:30:09.295Z,46.21
2018-04-02T21:32:38.169Z,47.63
2018-04-02T21:35:06.448Z,47.84
2018-04-02T21:37:34.818Z,48.96
2018-04-02T21:40:03.911Z,48.29
2018-04-02T21:42:33.282Z,48.01
2018-04-02T21:45:01.612Z,48.84
2018-04-02T21:47:29.924Z,49.33
2018-04-02T21:49:59.087Z,49.03
2018-04-02T21:52:27.365Z,48.33
2018-04-02T21:54:55.648Z,48.15
2018-04-02T21:57:24.713Z,47.68
2018-04-02T21:59:52.978Z,47.66
2018-04-02T22:02:21.236Z,47.47
2018-04-02T22:04:50.283Z,46.68
2018-04-02T22:07:21.419Z,47.13
2018-04-02T22:09:49.774Z,47.01
2018-04-02T22:12:18.123Z,46.24
2018-04-02T22:14:47.195Z,45.03
2018-04-02T22:17:15.606Z,44.43
2018-04-02T22:19:44.644Z,44.52
2018-04-02T22:22:12.907Z,44.22
2018-04-02T22:24:41.175Z,44.05
2018-04-02T22:27:09.790Z,43.36
2018-04-02T22:29:38.098Z,43.41
2018-04-02T22:32:07.156Z,42.50
2018-04-02T22:34:35.426Z,42.42
2018-04-02T22:37:03.682Z,43.11
2018-04-02T22:39:31.983Z,42.00
2018-04-02T22:42:00.298Z,41.73
2018-04-02T22:44:29.328Z,41.48
2018-04-02T22:46:57.665Z,41.82
2018-04-02T22:49:26.820Z,42.07
2018-04-02T22:51:55.264Z,41.74
2018-04-02T22:54:23.614Z,41.92
2018-04-02T22:56:52.619Z,41.86
2018-04-02T22:59:20.960Z,41.97
2018-04-02T23:01:49.211Z,41.76
2018-04-02T23:04:18.203Z,41.41
2018-04-02T23:06:46.485Z,41.17
2018-04-02T23:09:14.745Z,41.19
2018-04-02T23:11:43.018Z,40.25
2018-04-02T23:14:11.275Z,39.72
2018-04-02T23:16:39.577Z,40.19
2018-04-02T23:19:07.845Z,40.58
2018-04-02T23:21:36.085Z,40.20
2018-04-02T23:24:05.134Z,40.59
2018-04-02T23:26:33.389Z,40.89
2018-04-02T23:29:01.776Z,41.19
2018-04-02T23:31:30.159Z,41.38
2018-04-02T23:33:58.556Z,41.25
2018-04-02T23:36:26.860Z,41.42
2018-04-02T23:38:55.904Z,41.88
2018-04-02T23:41:24.165Z,41.63
2018-04-02T23:43:52.426Z,41.42
2018-04-02T23:46:20.699Z,41.19
2018-04-02T23:48:48.948Z,41.50
2018-04-02T23:51:17.974Z,41.65
2018-04-02T23:53:46.247Z,41.98
2018-04-02T23:56:14.533Z,42.25
2018-04-02T23:58:42.784Z,42.21
